Terminal Aerodrome Forecast
Issued by NWS

Home | Current Version | Previous Version | Text Only | Print | Product List | Glossary On
Versions: 1 2 3 4 5 6 7 8 9 10 11 12 13 14 15 16 17 18 19 20 21 22 23 24 25 26 27 28
000
FTUS41 KBOX 212039 AAA
TAFACK
TAF AMD
KACK 212039Z 2121/2218 12010KT 1 1/2SM -RA BR OVC002
     FM220200 34005KT 2SM -SHRA BR BKN003
     FM220400 29006KT 2SM BR BKN003
     FM220600 27008KT P6SM BKN008
     FM221300 26011G21KT P6SM SCT080=

USA.gov is the U.S. government's official web portal to all federal, state and local government web resources and services.